Latest Weather Observations for Coondewanna

IDW60801

Issued at 12:31 pm WST Thursday 5 May 2016 (issued every 30 minutes, with the page automatically refreshed every 10 minutes)

About weather observations | Map of weather stations | Latest weather observations for WA | Other Formats
Station Details ID: 505051 Name: COONDEWANNA Lat: -22.96 Lon: 118.81 Height: 697.63 m
Data from the previous 72 hours. | See also: Recent months for locations in Western Australia
Date/Time
WST
Temp
°C
App
Temp
°C
Dew
Point
Rel
Hum
%
Delta-T
°C
Wind Press
QNH
hPa
Press
MSL
hPa
Rain
since 9 am
mm
Dir
 
Spd
km/h
Gust
km/h
Spd
kts
Gust
kts
05/12:30pm 26.1 25.8 13.2 44 7.8 NNE 7 11 4 6 1014.4 1011.5 0.0
05/12:00pm 25.9 25.7 13.1 45 7.7 ENE 6 9 3 5 1014.8 1011.9 0.0
05/11:30am 25.4 25.2 12.9 45 7.5 NE 6 9 3 5 1015.4 1012.5 0.0
05/11:00am 24.5 25.2 13.4 50 6.7 ENE 2 9 1 5 1015.6 1012.7 0.0
05/10:30am 23.9 23.3 13.4 51 6.3 E 9 13 5 7 1015.9 1013.0 0.0
05/10:00am 23.4 22.9 13.8 54 5.8 ESE 9 13 5 7 1016.3 1013.4 0.0
05/09:30am 22.7 22.1 13.5 56 5.5 E 9 13 5 7 1016.3 1013.4 0.0
05/09:00am 22.5 21.8 13.3 56 5.5 ENE 9 15 5 8 1016.1 1013.2 0.6
05/08:30am 21.7 22.0 14.6 64 4.3 ENE 6 7 3 4 1016.2 1013.3 0.6
05/08:00am 20.9 21.7 14.8 68 3.7 ENE 4 7 2 4 1016.1 1013.2 0.6
05/07:30am 20.0 21.9 15.8 77 2.6 CALM 0 0 0 0 1016.0 1013.1 0.6
05/07:00am 20.4 20.6 14.7 70 3.4 ENE 7 7 4 4 1015.8 1012.9 0.4
05/06:30am 19.9 21.3 15.5 76 2.7 ENE 2 7 1 4 1015.6 1012.7 0.4
05/06:00am 20.1 20.7 15.3 74 2.9 ENE 6 7 3 4 1015.4 1012.5 0.4
05/05:30am 20.3 20.8 14.9 71 3.3 ENE 6 9 3 5 1014.7 1011.8 0.4
05/05:00am 20.8 20.5 14.5 67 3.8 ENE 9 15 5 8 1014.7 1011.8 0.4
05/04:30am 20.8 19.7 15.4 71 3.3 E 15 19 8 10 1014.5 1011.6 0.4
05/04:00am 20.9 20.3 15.7 72 3.2 E 13 15 7 8 1014.3 1011.4 0.4
05/03:30am 20.9 20.5 16.1 74 3.0 E 13 19 7 10 1014.4 1011.5 0.4
05/03:00am 21.6 21.2 16.3 72 3.3 ESE 13 15 7 8 1014.7 1011.8 0.0
05/02:30am 21.4 21.8 17.2 77 2.7 E 11 15 6 8 1014.7 1011.8 0.0
05/02:00am 21.9 22.4 16.6 72 3.3 ESE 9 13 5 7 1015.0 1012.1 0.0
05/01:30am 23.7 23.2 13.8 53 6.0 ESE 9 15 5 8 1015.2 1012.2 0.0
05/01:00am 23.9 23.4 12.8 49 6.6 NNW 7 7 4 4 1014.9 1012.0 0.0
05/12:30am 23.7 23.4 12.7 50 6.5 NNW 6 7 3 4 1015.0 1012.1 0.0
05/12:00am 24.2 24.5 12.2 47 7.1 NNW 2 6 1 3 1015.2 1012.2 0.0
 
Date/Time
WST
Temp
°C
App
Temp
°C
Dew
Point
Rel
Hum
%
Delta-T
°C
Wind Press
QNH
hPa
Press
MSL
hPa
Rain
since 9 am
mm
Dir
 
Spd
km/h
Gust
km/h
Spd
kts
Gust
kts
04/11:30pm 23.8 24.5 12.1 48 6.9 CALM 0 0 0 0 1015.2 1012.2 0.0
04/11:00pm 24.6 25.0 11.2 43 7.8 CALM 0 0 0 0 1015.3 1012.3 0.0
04/10:30pm 25.2 23.9 11.4 42 8.1 NNW 9 13 5 7 1015.6 1012.7 0.0
04/10:00pm 25.1 24.2 11.3 42 8.0 NNW 7 9 4 5 1015.5 1012.6 0.0
04/09:30pm 25.8 26.3 11.6 41 8.3 CALM 0 6 0 3 1015.6 1012.7 0.0
04/09:00pm 26.3 25.3 10.9 38 9.0 NNW 7 9 4 5 1015.4 1012.5 0.0
04/08:30pm 26.8 26.1 11.3 38 9.1 NNW 6 9 3 5 1015.4 1012.5 0.0
04/08:00pm 27.4 25.6 11.0 36 9.6 N 11 15 6 8 1014.8 1011.9 0.0
04/07:30pm 27.6 25.9 11.2 36 9.6 N 11 15 6 8 1014.8 1011.9 0.0
04/07:00pm 27.6 26.3 11.2 36 9.6 NNW 9 11 5 6 1014.6 1011.7 0.0
04/06:30pm 28.2 26.4 10.9 34 10.1 NNW 11 13 6 7 1014.3 1011.4 0.0
04/06:00pm 28.7 26.1 10.8 33 10.5 N 15 20 8 11 1014.1 1011.2 0.0
04/05:30pm 29.1 27.0 11.2 33 10.6 N 13 19 7 10 1013.8 1010.8 0.0
04/05:00pm 29.5 26.6 11.1 32 10.9 N 17 24 9 13 1013.2 1010.3 0.0
04/04:30pm 29.9 26.6 10.9 31 11.2 N 19 28 10 15 1013.2 1010.3 0.0
04/04:00pm 30.2 27.0 11.2 31 11.3 N 19 26 10 14 1013.1 1010.2 0.0
04/03:30pm 30.3 27.7 10.8 30 11.5 N 15 26 8 14 1013.2 1010.3 0.0
04/03:00pm 30.7 27.3 11.1 30 11.7 N 20 30 11 16 1013.4 1010.5 0.0
04/02:30pm 30.2 26.8 11.2 31 11.3 NNE 20 28 11 15 1013.5 1010.6 0.0
04/02:00pm 30.3 26.8 10.8 30 11.5 N 20 32 11 17 1013.5 1010.6 0.0
04/01:30pm 30.1 26.5 10.6 30 11.5 NNE 20 37 11 20 1013.8 1010.8 0.0
04/01:00pm 29.5 25.4 10.1 30 11.3 NNE 22 37 12 20 1014.2 1011.3 0.0
04/12:30pm 29.7 25.1 9.8 29 11.5 NE 24 41 13 22 1014.6 1011.7 0.0
04/12:00pm 29.8 25.3 9.9 29 11.6 NE 24 37 13 20 1015.3 1012.3 0.0
04/11:30am 28.6 23.8 8.8 29 11.2 NE 24 37 13 20 1015.7 1012.8 0.0
04/11:00am 28.1 23.2 8.4 29 11.1 NE 24 33 13 18 1016.5 1013.6 0.0
04/10:30am 26.8 22.6 8.3 31 10.3 NE 20 30 11 16 1017.1 1014.2 0.0
04/10:00am 26.3 22.1 8.3 32 10.0 NE 20 32 11 17 1017.1 1014.2 0.0
04/09:30am 26.2 22.7 8.7 33 9.8 NE 17 33 9 18 1017.4 1014.5 0.0
04/09:00am 24.8 21.6 8.3 35 9.1 ENE 15 20 8 11 1017.8 1014.9 0.0
04/08:30am 24.3 20.7 8.3 36 8.8 ENE 17 24 9 13 1017.6 1014.7 0.0
04/08:00am 24.1 20.2 8.5 37 8.6 ENE 19 26 10 14 1017.4 1014.5 0.0
04/07:30am 22.7 18.8 8.8 41 7.7 ENE 19 26 10 14 1017.1 1014.2 0.0
04/07:00am 22.3 18.9 9.1 43 7.3 ENE 17 24 9 13 1016.8 1013.9 0.0
04/06:30am 22.4 18.7 9.6 44 7.1 ENE 19 24 10 13 1016.7 1013.8 0.0
04/06:00am 22.6 18.8 9.7 44 7.2 ENE 20 30 11 16 1016.3 1013.4 0.0
04/05:30am 22.8 19.6 9.9 44 7.3 ENE 17 26 9 14 1016.4 1013.5 0.0
04/05:00am 21.6 20.2 11.0 51 6.0 ENE 9 17 5 9 1016.2 1013.3 0.0
04/04:30am 20.1 20.7 11.8 59 4.8 CALM 0 6 0 3 1016.7 1013.8 0.0
04/04:00am 20.0 19.5 12.0 60 4.6 ENE 6 9 3 5 1016.9 1014.0 0.0
04/03:30am 20.2 20.0 11.7 58 4.9 ENE 4 7 2 4 1016.4 1013.5 0.0
04/03:00am 20.6 21.2 11.8 57 5.1 CALM 0 0 0 0 1016.4 1013.5 0.0
04/02:30am 21.2 21.6 11.2 53 5.7 CALM 0 7 0 4 1016.4 1013.5 0.0
04/02:00am 21.7 21.4 11.4 52 5.9 ENE 4 7 2 4 1016.7 1013.8 0.0
04/01:30am 21.7 20.7 11.1 51 6.1 ENE 7 11 4 6 1016.5 1013.6 0.0
04/01:00am 22.4 21.5 11.2 49 6.4 E 7 11 4 6 1016.5 1013.6 0.0
04/12:30am 22.9 21.2 11.3 48 6.7 E 11 15 6 8 1016.5 1013.6 0.0
04/12:00am 23.1 21.1 11.5 48 6.7 ENE 13 17 7 9 1016.4 1013.5 0.0
 
Date/Time
WST
Temp
°C
App
Temp
°C
Dew
Point
Rel
Hum
%
Delta-T
°C
Wind Press
QNH
hPa
Press
MSL
hPa
Rain
since 9 am
mm
Dir
 
Spd
km/h
Gust
km/h
Spd
kts
Gust
kts
03/11:30pm 23.5 20.7 11.5 47 7.0 E 17 20 9 11 1016.5 1013.6 0.0
03/11:00pm 23.6 20.9 11.6 47 7.0 E 17 20 9 11 1016.9 1014.0 0.0
03/10:30pm 24.2 20.9 11.5 45 7.4 E 20 26 11 14 1017.0 1014.1 0.0
03/10:00pm 24.6 21.3 11.5 44 7.6 E 20 28 11 15 1017.2 1014.3 0.0
03/09:30pm 23.9 22.7 11.6 46 7.2 E 9 13 5 7 1017.4 1014.5 0.0
03/09:00pm 25.1 22.3 11.3 42 8.0 E 17 24 9 13 1017.4 1014.5 0.0
03/08:30pm 25.7 22.5 11.1 40 8.5 ESE 19 26 10 14 1017.4 1014.5 0.0
03/08:00pm 25.3 23.0 10.4 39 8.5 E 13 13 7 7 1017.4 1014.5 0.0
03/07:30pm 25.4 23.7 11.2 41 8.3 ESE 11 13 6 7 1017.0 1014.1 0.0
03/07:00pm 26.1 24.6 10.7 38 8.9 ENE 9 11 5 6 1016.9 1014.0 0.0
03/06:30pm 26.8 25.3 10.5 36 9.4 ENE 9 11 5 6 1016.3 1013.4 0.0
03/06:00pm 27.9 24.6 9.7 32 10.4 ENE 17 24 9 13 1016.0 1013.1 0.0
03/05:30pm 28.3 25.0 9.6 31 10.7 ENE 17 24 9 13 1015.9 1013.0 0.0
03/05:00pm 28.8 25.6 10.0 31 10.9 ENE 17 24 9 13 1015.7 1012.8 0.0
03/04:30pm 29.2 25.8 9.3 29 11.4 ENE 17 22 9 12 1015.5 1012.6 0.0
03/04:00pm 29.5 26.6 9.6 29 11.5 ENE 15 24 8 13 1015.7 1012.8 0.0
03/03:30pm 29.9 26.6 9.4 28 11.8 ENE 17 28 9 15 1015.8 1012.9 0.0
03/03:00pm 29.5 27.1 10.1 30 11.3 E 13 20 7 11 1015.5 1012.6 0.0
03/02:30pm 29.0 25.4 9.7 30 11.1 ENE 19 28 10 15 1015.7 1012.8 0.0
03/02:00pm 29.2 25.8 9.3 29 11.4 ENE 17 26 9 14 1015.6 1012.7 0.0
03/01:00pm 29.4 25.5 9.5 29 11.5 E 20 32 11 17 1016.5 1013.6 0.0
03/12:30pm 29.2 25.5 9.3 29 11.4 NE 19 28 10 15 1016.9 1014.0 0.0
03/12:00pm 28.5 24.3 8.2 28 11.4 ENE 20 26 11 14 1017.1 1014.2 0.0
03/11:30am 27.3 23.3 9.2 32 10.3 ENE 20 26 11 14 1017.8 1014.9 0.0
03/11:00am 26.5 22.4 10.2 36 9.4 ENE 22 28 12 15 1018.4 1015.5 0.0
03/10:30am 25.6 22.3 11.0 40 8.5 ENE 19 26 10 14 1019.0 1016.1 0.0
03/10:00am 24.7 20.8 10.9 42 8.0 ENE 22 28 12 15 1019.1 1016.2 0.0
03/09:30am 24.7 21.0 11.6 44 7.7 ENE 22 30 12 16 1019.4 1016.6 0.0
03/09:00am 23.0 21.3 12.6 52 6.1 E 13 17 7 9 1019.6 1016.8 3.0
03/08:30am 20.7 22.1 14.4 67 3.8 CALM 0 2 0 1 1019.5 1016.7 3.0
03/08:00am 20.7 21.4 14.4 67 3.8 NNE 4 6 2 3 1019.3 1016.5 3.0
03/07:30am 19.6 19.2 14.0 70 3.3 NNE 9 13 5 7 1019.2 1016.4 3.0
03/07:00am 18.2 17.4 14.1 77 2.4 NE 11 15 6 8 1018.8 1015.9 3.0
03/06:30am 16.4 16.9 15.1 92 0.8 S 6 7 3 4 1018.7 1015.8 3.0
03/06:00am 16.5 16.9 14.7 89 1.1 S 6 6 3 3 1018.4 1015.5 3.0
03/05:30am 16.7 17.8 14.5 87 1.3 S 2 6 1 3 1018.3 1015.4 3.0
03/05:00am 17.9 19.3 14.4 80 2.1 CALM 0 6 0 3 1018.0 1015.2 3.0
03/04:30am 17.3 18.5 14.9 86 1.4 S 2 7 1 4 1017.7 1014.8 3.0
03/04:00am 17.9 19.4 14.6 81 2.0 CALM 0 6 0 3 1017.7 1014.8 3.0
03/03:30am 18.8 18.6 14.7 77 2.5 S 9 13 5 7 1017.8 1014.9 3.0
03/03:00am 18.9 19.1 14.6 76 2.6 W 7 11 4 6 1017.8 1014.9 3.0
03/02:30am 19.6 19.2 13.1 66 3.8 ENE 7 11 4 6 1017.6 1014.7 3.0
03/02:00am 19.3 17.3 13.9 71 3.2 E 17 22 9 12 1017.6 1014.7 3.0
03/01:30am 18.3 16.1 15.0 81 2.0 E 20 24 11 13 1018.0 1015.2 3.0
03/01:00am 18.7 18.2 15.0 79 2.2 ENE 11 17 6 9 1018.4 1015.5 0.6
03/12:30am 19.6 18.0 14.0 70 3.3 SE 15 20 8 11 1018.5 1015.6 0.0
03/12:00am 21.3 20.5 13.0 59 4.9 SSE 9 19 5 10 1018.7 1015.8 0.0
 
Date/Time
WST
Temp
°C
App
Temp
°C
Dew
Point
Rel
Hum
%
Delta-T
°C
Wind Press
QNH
hPa
Press
MSL
hPa
Rain
since 9 am
mm
Dir
 
Spd
km/h
Gust
km/h
Spd
kts
Gust
kts
02/11:30pm 21.2 20.8 12.3 57 5.2 NE 6 11 3 6 1018.3 1015.4 0.0
02/11:00pm 20.8 18.9 13.0 61 4.6 E 15 28 8 15 1018.1 1015.3 0.0
02/10:30pm 20.7 18.0 13.6 64 4.2 E 20 28 11 15 1018.5 1015.6 0.0
02/10:00pm 22.1 18.4 12.6 55 5.6 SE 24 33 13 18 1018.8 1015.9 0.0
02/09:30pm 22.0 18.2 13.6 59 5.0 SE 26 35 14 19 1018.8 1015.9 0.0
02/09:00pm 22.9 19.2 12.8 53 6.0 SSE 24 33 13 18 1018.9 1016.0 0.0
02/08:30pm 24.4 22.1 11.7 45 7.4 ESE 15 28 8 15 1017.9 1015.1 0.0
02/08:00pm 26.1 24.8 9.9 36 9.2 NE 7 11 4 6 1017.4 1014.5 0.0
02/07:30pm 26.3 25.0 10.0 36 9.3 NNE 7 9 4 5 1017.2 1014.3 0.0
02/07:00pm 27.1 25.4 9.9 34 9.9 NNE 9 11 5 6 1017.0 1014.1 0.0
02/06:30pm 27.9 25.1 10.1 33 10.3 N 15 22 8 12 1016.7 1013.8 0.0
02/06:00pm 28.2 25.6 9.5 31 10.7 NNE 13 19 7 10 1016.4 1013.5 0.0
02/05:30pm 28.3 24.8 8.6 29 11.1 NE 17 20 9 11 1016.0 1013.1 0.0
02/05:00pm 29.2 25.3 8.8 28 11.6 NNE 19 26 10 14 1015.7 1012.8 0.0
02/04:30pm 29.1 25.4 9.3 29 11.4 N 19 30 10 16 1015.5 1012.6 0.0
02/04:00pm 29.8 25.7 8.8 27 12.0 NNE 20 28 11 15 1015.4 1012.5 0.0
02/03:30pm 29.8 26.1 9.3 28 11.8 N 19 26 10 14 1015.6 1012.7 0.0
02/03:00pm 29.9 26.2 9.4 28 11.8 NE 19 33 10 18 1015.5 1012.6 0.0
02/02:30pm 29.8 26.8 9.3 28 11.8 NNE 15 30 8 16 1016.0 1013.1 0.0
02/02:00pm 28.8 25.4 9.0 29 11.3 NE 17 30 9 16 1016.1 1013.2 0.0
02/01:30pm 29.7 26.0 9.3 28 11.7 NE 19 28 10 15 1016.3 1013.4 0.0
02/01:00pm 28.9 24.9 9.1 29 11.3 E 20 32 11 17 1016.5 1013.6 0.0

Other Formats:

Comma delimited format used in spreadsheet applications
http://www.bom.gov.au/fwo/IDW60801/IDW60801.99312.axf

JavaScript Object Notation format (JSON) in row-major order
http://www.bom.gov.au/fwo/IDW60801/IDW60801.99312.json